Time;durP1;ratioP1;P1;durP2;ratioP2;P2;SDS_P1;SDS_P2;PMS_P1;PMS_P2;Temp;Humidity;BMP_temperature;BMP_pressure;BME280_temperature;BME280_humidity;BME280_pressure;Samples;Min_cycle;Max_cycle;Signal;HPM_P1;HPM_P2
2023/04/10 00:01:21;;;;;;;;;;;;;;;11.32;100.00;99548.16;4935987;28;19926;-47
2023/04/10 00:03:47;;;;;;;;;;;;;;;11.96;100.00;99505.09;4937146;28;19962;-46
2023/04/10 00:06:12;;;;;;;;;;;;;;;12.14;100.00;99481.31;4935891;28;20650;-46
2023/04/10 00:08:37;;;;;;;;;;;;;;;12.31;100.00;99459.28;4936920;28;20929;-46
2023/04/10 00:11:02;;;;;;;;;;;;;;;11.92;100.00;99454.47;4937328;28;20333;-46
2023/04/10 00:13:28;;;;;;;;;;;;;;;12.38;100.00;99445.28;4935111;28;20033;-47
2023/04/10 00:15:54;;;;;;;;;;;;;;;11.66;100.00;99455.22;4937951;28;20505;-46
2023/04/10 00:18:19;;;;;;;;;;;;;;;11.79;100.00;99455.69;4943727;28;19926;-46
2023/04/10 00:20:44;;;;;;;;;;;;;;;11.76;100.00;99455.78;4939846;28;20290;-46
2023/04/10 00:23:09;;;;;;;;;;;;;;;11.52;100.00;99459.03;4939399;28;20144;-46
2023/04/10 00:25:35;;;;;;;;;;;;;;;11.17;100.00;99470.31;4938706;28;19972;-46
2023/04/10 00:28:00;;;;;;;;;;;;;;;10.72;100.00;99495.53;4938268;28;20396;-47
2023/04/10 00:30:25;;;;;;;;;;;;;;;11.27;100.00;99476.09;4938826;28;19922;-46
2023/04/10 00:32:50;;;;;;;;;;;;;;;10.58;100.00;99477.84;4937126;28;19929;-47
2023/04/10 00:35:16;;;;;;;;;;;;;;;10.87;100.00;99475.38;4937756;28;20401;-46
2023/04/10 00:37:41;;;;;;;;;;;;;;;11.13;100.00;99463.56;4938889;28;19969;-47
2023/04/10 00:40:07;;;;;;;;;;;;;;;11.27;100.00;99464.03;4938138;28;20417;-47
2023/04/10 00:42:32;;;;;;;;;;;;;;;11.28;100.00;99455.41;4937801;28;19934;-46
2023/04/10 00:44:57;;;;;;;;;;;;;;;10.97;100.00;99463.13;4938334;28;20004;-46
2023/04/10 00:47:23;;;;;;;;;;;;;;;11.28;100.00;99447.66;4936558;28;19933;-46
2023/04/10 00:49:48;;;;;;;;;;;;;;;11.08;100.00;99448.22;4937649;28;19926;-45
2023/04/10 00:52:13;;;;;;;;;;;;;;;10.66;100.00;99451.03;4939878;28;19919;-46
2023/04/10 00:54:38;;;;;;;;;;;;;;;10.52;100.00;99460.81;4941824;28;20029;-46
2023/04/10 00:57:03;;;;;;;;;;;;;;;11.00;100.00;99464.78;4957212;28;19932;-47
2023/04/10 00:59:29;;;;;;;;;;;;;;;10.93;100.00;99458.09;4939002;28;19961;-45
2023/04/10 01:01:54;;;;;;;;;;;;;;;10.58;100.00;99477.84;4938510;28;19969;-46
2023/04/10 01:04:20;;;;;;;;;;;;;;;10.79;100.00;99477.34;4941918;28;19930;-45
2023/04/10 01:06:49;;;;;;;;;;;;;;;10.62;100.00;99475.16;4955886;28;20020;-45
2023/04/10 01:09:17;;;;;;;;;;;;;;;10.99;100.00;99469.09;4941066;28;19919;-46
2023/04/10 01:11:51;;;;;;;;;;;;;;;10.84;100.00;99475.47;4941547;28;19927;-47
2023/04/10 01:14:52;;;;;;;;;;;;;;;10.44;100.00;99491.88;4940679;28;19930;-46
2023/04/10 01:17:21;;;;;;;;;;;;;;;10.09;100.00;99491.84;5025161;28;19921;-45
2023/04/10 01:19:47;;;;;;;;;;;;;;;10.70;100.00;99480.13;4953746;28;19965;-46
2023/04/10 01:22:12;;;;;;;;;;;;;;;10.10;100.00;99490.94;4940335;28;20017;-46
2023/04/10 01:24:49;;;;;;;;;;;;;;;11.00;100.00;99477.66;4938419;28;19929;-46
2023/04/10 01:27:15;;;;;;;;;;;;;;;10.45;100.00;99485.03;4941362;28;19984;-45
2023/04/10 01:29:45;;;;;;;;;;;;;;;10.55;100.00;99488.22;4938518;28;20005;-48
2023/04/10 01:32:12;;;;;;;;;;;;;;;10.69;100.00;99475.84;4936073;28;21656;-46
2023/04/10 01:34:44;;;;;;;;;;;;;;;11.09;100.00;99464.53;4937145;28;19934;-46
2023/04/10 01:37:15;;;;;;;;;;;;;;;10.63;100.00;99460.56;4934903;28;20200;-47
2023/04/10 01:39:40;;;;;;;;;;;;;;;10.89;100.00;99462.47;4934615;28;19918;-46
2023/04/10 01:42:06;;;;;;;;;;;;;;;10.40;100.00;99473.97;4952228;28;20413;-47
2023/04/10 01:44:31;;;;;;;;;;;;;;;10.22;100.00;99462.38;4936900;28;19926;-46
2023/04/10 01:46:57;;;;;;;;;;;;;;;10.55;100.00;99470.19;4952310;28;19930;-46
2023/04/10 01:49:23;;;;;;;;;;;;;;;10.62;100.00;99471.75;4936481;28;19928;-47
2023/04/10 01:51:48;;;;;;;;;;;;;;;10.41;100.00;99468.81;4935325;28;19926;-46
2023/04/10 01:54:13;;;;;;;;;;;;;;;10.56;100.00;99477.03;4936670;28;20663;-47
2023/04/10 01:56:38;;;;;;;;;;;;;;;10.07;100.00;99478.16;4934474;28;19929;-46
2023/04/10 01:59:04;;;;;;;;;;;;;;;10.22;100.00;99468.38;4939155;28;19930;-47
2023/04/10 02:01:30;;;;;;;;;;;;;;;10.34;100.00;99477.56;4936133;28;19918;-47
2023/04/10 02:03:55;;;;;;;;;;;;;;;10.00;100.00;99465.41;4937541;28;19980;-47
2023/04/10 02:06:41;;;;;;;;;;;;;;;10.24;100.00;99458.00;4938396;28;20267;-46
2023/04/10 02:09:11;;;;;;;;;;;;;;;11.00;100.00;99454.47;4937505;28;19922;-45
2023/04/10 02:11:55;;;;;;;;;;;;;;;11.39;100.00;99420.75;4934854;28;20934;-46
2023/04/10 02:14:21;;;;;;;;;;;;;;;10.78;100.00;99424.09;4936715;28;20433;-47
2023/04/10 02:16:47;;;;;;;;;;;;;;;10.13;100.00;99439.44;4938110;28;20025;-46
2023/04/10 02:19:12;;;;;;;;;;;;;;;10.22;100.00;99428.91;4938262;28;19923;-47
2023/04/10 02:21:38;;;;;;;;;;;;;;;10.58;100.00;99421.19;4940099;28;20829;-47
2023/04/10 02:24:04;;;;;;;;;;;;;;;10.37;100.00;99400.22;4937226;28;19926;-46
2023/04/10 02:26:29;;;;;;;;;;;;;;;11.08;100.00;99400.97;4936348;28;20365;-46
2023/04/10 02:28:55;;;;;;;;;;;;;;;11.19;100.00;99388.63;4935936;28;19929;-46
2023/04/10 02:31:20;;;;;;;;;;;;;;;11.37;100.00;99392.41;4937693;28;19922;-47
2023/04/10 02:33:46;;;;;;;;;;;;;;;11.51;100.00;99371.38;4939589;28;19965;-48
2023/04/10 02:36:11;;;;;;;;;;;;;;;10.80;100.00;99396.56;4936942;28;19926;-46
2023/04/10 02:38:36;;;;;;;;;;;;;;;11.24;100.00;99391.94;4934355;28;19964;-46
2023/04/10 02:41:02;;;;;;;;;;;;;;;10.81;100.00;99400.84;4937446;28;20346;-46
2023/04/10 02:43:28;;;;;;;;;;;;;;;11.21;100.00;99386.84;4937794;28;20583;-46
2023/04/10 02:45:53;;;;;;;;;;;;;;;11.46;100.00;99379.25;4935157;28;20907;-46
2023/04/10 02:48:19;;;;;;;;;;;;;;;11.20;100.00;99379.16;4936035;28;19999;-46
2023/04/10 02:50:46;;;;;;;;;;;;;;;11.30;100.00;99365.13;4936387;28;19925;-46
2023/04/10 02:53:14;;;;;;;;;;;;;;;11.09;100.00;99379.47;4938341;28;20250;-46
2023/04/10 02:55:40;;;;;;;;;;;;;;;11.20;100.00;99366.25;4937313;28;20482;-46
2023/04/10 02:58:06;;;;;;;;;;;;;;;11.25;100.00;99367.00;4935397;28;19963;-47
2023/04/10 03:00:32;;;;;;;;;;;;;;;11.42;100.00;99379.38;4934948;28;19926;-47
2023/04/10 03:02:57;;;;;;;;;;;;;;;11.05;100.00;99365.81;4937571;28;19931;-47
2023/04/10 03:05:22;;;;;;;;;;;;;;;11.44;100.00;99355.25;4935038;28;19949;-46
2023/04/10 03:07:47;;;;;;;;;;;;;;;11.56;100.00;99361.75;4937218;28;19928;-46
2023/04/10 03:10:13;;;;;;;;;;;;;;;11.51;100.00;99353.31;4937503;28;19927;-46
2023/04/10 03:12:38;;;;;;;;;;;;;;;11.41;100.00;99349.34;4936095;28;19972;-47
2023/04/10 03:15:03;;;;;;;;;;;;;;;11.34;100.00;99355.56;4936853;28;19926;-47
2023/04/10 03:17:29;;;;;;;;;;;;;;;11.45;100.00;99343.22;4934686;28;19929;-47
2023/04/10 03:19:54;;;;;;;;;;;;;;;11.60;100.00;99336.72;4936426;28;19922;-47
2023/04/10 03:22:19;;;;;;;;;;;;;;;11.85;100.00;99323.91;4938799;28;19937;-47
2023/04/10 03:24:45;;;;;;;;;;;;;;;11.06;100.00;99330.56;4935465;28;20029;-47
2023/04/10 03:27:10;;;;;;;;;;;;;;;11.81;100.00;99325.72;4932918;28;19973;-46
2023/04/10 03:29:35;;;;;;;;;;;;;;;11.16;100.00;99338.91;4939299;28;19922;-46
2023/04/10 03:32:00;;;;;;;;;;;;;;;11.20;100.00;99349.09;4941314;28;19922;-46
2023/04/10 03:34:26;;;;;;;;;;;;;;;11.35;100.00;99337.47;4936470;28;20476;-45
2023/04/10 03:36:51;;;;;;;;;;;;;;;10.96;100.00;99335.16;4935986;28;19926;-46
2023/04/10 03:39:16;;;;;;;;;;;;;;;11.19;100.00;99339.66;4938767;28;19975;-46
2023/04/10 03:41:41;;;;;;;;;;;;;;;11.12;100.00;99345.88;4937388;28;19926;-46
2023/04/10 03:44:06;;;;;;;;;;;;;;;11.05;100.00;99344.38;4938530;28;19982;-46
2023/04/10 03:46:32;;;;;;;;;;;;;;;11.09;100.00;99331.34;4933204;28;19926;-47
2023/04/10 03:48:57;;;;;;;;;;;;;;;10.86;100.00;99326.84;4935000;28;20251;-46
2023/04/10 03:51:23;;;;;;;;;;;;;;;11.08;100.00;99319.34;4935974;28;19972;-47
2023/04/10 03:53:48;;;;;;;;;;;;;;;10.70;100.00;99325.59;4934503;28;20270;-46
2023/04/10 03:56:14;;;;;;;;;;;;;;;11.11;100.00;99331.31;4936058;28;20013;-47
2023/04/10 03:58:39;;;;;;;;;;;;;;;10.71;100.00;99324.69;4937695;28;19979;-46
2023/04/10 04:01:04;;;;;;;;;;;;;;;10.85;100.00;99326.88;4934595;28;19926;-47
2023/04/10 04:03:29;;;;;;;;;;;;;;;10.40;100.00;99335.81;4934741;28;19930;-46
2023/04/10 04:05:55;;;;;;;;;;;;;;;10.61;100.00;99328.41;4934665;28;20138;-46
2023/04/10 04:08:20;;;;;;;;;;;;;;;10.88;100.00;99322.50;4935726;28;19922;-46
2023/04/10 04:10:45;;;;;;;;;;;;;;;10.67;100.00;99328.22;4938363;28;19926;-47
2023/04/10 04:13:10;;;;;;;;;;;;;;;10.30;100.00;99329.19;4938708;28;19926;-46
2023/04/10 04:15:36;;;;;;;;;;;;;;;10.50;100.00;99331.25;4940125;28;19924;-46
2023/04/10 04:18:01;;;;;;;;;;;;;;;10.38;100.00;99326.44;4935066;28;19926;-46
2023/04/10 04:20:26;;;;;;;;;;;;;;;10.72;100.00;99321.25;4936744;28;19926;-46
2023/04/10 04:22:51;;;;;;;;;;;;;;;10.99;100.00;99311.91;4937173;28;20393;-46
2023/04/10 04:25:18;;;;;;;;;;;;;;;11.17;100.00;99302.75;4931707;28;19961;-46
2023/04/10 04:27:43;;;;;;;;;;;;;;;10.95;100.00;99312.88;4936733;28;19929;-41
2023/04/10 04:30:09;;;;;;;;;;;;;;;10.91;100.00;99308.69;4932957;28;19984;-41
2023/04/10 04:32:34;;;;;;;;;;;;;;;11.18;100.00;99304.47;4933851;28;19926;-42
2023/04/10 04:34:59;;;;;;;;;;;;;;;11.17;100.00;99297.59;4936369;28;19979;-41
2023/04/10 04:37:25;;;;;;;;;;;;;;;11.26;100.00;99299.91;4936669;28;19926;-41
2023/04/10 04:39:50;;;;;;;;;;;;;;;11.38;100.00;99290.97;4935991;28;19934;-41
2023/04/10 04:42:15;;;;;;;;;;;;;;;11.43;100.00;99283.94;4937010;28;19923;-41
2023/04/10 04:44:40;;;;;;;;;;;;;;;11.11;100.00;99290.06;4934289;28;19926;-41
2023/04/10 04:47:06;;;;;;;;;;;;;;;11.20;100.00;99294.94;4933317;28;20183;-41
2023/04/10 04:49:31;;;;;;;;;;;;;;;11.25;100.00;99285.34;4935196;28;20450;-41
2023/04/10 04:51:56;;;;;;;;;;;;;;;11.36;100.00;99285.03;4933386;28;20327;-41
2023/04/10 04:54:21;;;;;;;;;;;;;;;10.97;100.00;99297.34;4934034;28;20096;-41
2023/04/10 04:56:47;;;;;;;;;;;;;;;11.07;100.00;99293.63;4934470;28;20101;-41
2023/04/10 04:59:12;;;;;;;;;;;;;;;11.35;100.00;99285.06;4935996;28;19933;-41
2023/04/10 05:01:37;;;;;;;;;;;;;;;11.10;100.00;99296.09;4934806;28;19922;-41
2023/04/10 05:04:02;;;;;;;;;;;;;;;11.21;100.00;99273.41;4937043;28;19926;-40
2023/04/10 05:06:27;;;;;;;;;;;;;;;11.03;100.00;99279.97;4935922;28;19968;-41
2023/04/10 05:08:53;;;;;;;;;;;;;;;10.99;100.00;99290.41;4935025;28;19987;-41
2023/04/10 05:11:18;;;;;;;;;;;;;;;10.82;100.00;99290.91;4934825;28;20007;-41
2023/04/10 05:13:43;;;;;;;;;;;;;;;10.79;100.00;99297.00;4934653;28;20048;-41
2023/04/10 05:16:08;;;;;;;;;;;;;;;10.44;100.00;99293.63;4936351;28;20105;-41
2023/04/10 05:18:34;;;;;;;;;;;;;;;10.34;100.00;99315.38;4933225;28;20017;-41
2023/04/10 05:20:59;;;;;;;;;;;;;;;10.45;100.00;99310.78;4935694;28;20611;-41
2023/04/10 05:23:24;;;;;;;;;;;;;;;10.54;100.00;99314.84;4936086;28;20319;-40
2023/04/10 05:25:50;;;;;;;;;;;;;;;10.98;100.00;99314.50;4933288;28;20296;-41
2023/04/10 05:28:15;;;;;;;;;;;;;;;10.81;100.00;99302.94;4936264;28;20303;-41
2023/04/10 05:30:40;;;;;;;;;;;;;;;11.33;100.00;99289.41;4934610;28;20382;-41
2023/04/10 05:33:05;;;;;;;;;;;;;;;10.95;100.00;99294.81;4935486;28;20422;-41
2023/04/10 05:35:30;;;;;;;;;;;;;;;11.52;100.00;99282.81;4935592;28;20388;-41
2023/04/10 05:37:57;;;;;;;;;;;;;;;11.57;100.00;99286.09;4936049;28;20196;-41
2023/04/10 05:40:23;;;;;;;;;;;;;;;11.37;100.00;99262.66;4939029;28;20227;-41
2023/04/10 05:42:48;;;;;;;;;;;;;;;11.45;100.00;99251.22;4939302;28;20005;-41
2023/04/10 05:45:13;;;;;;;;;;;;;;;12.04;100.00;99234.69;4939215;28;19919;-41
2023/04/10 05:47:39;;;;;;;;;;;;;;;12.53;100.00;99227.78;4937811;28;19918;-41
2023/04/10 05:50:04;;;;;;;;;;;;;;;12.70;100.00;99203.06;4941063;28;19918;-41
2023/04/10 05:52:30;;;;;;;;;;;;;;;12.51;100.00;99203.75;4937865;28;19972;-41
2023/04/10 05:54:55;;;;;;;;;;;;;;;11.61;100.00;99227.47;4938308;28;19954;-41
2023/04/10 05:57:20;;;;;;;;;;;;;;;11.59;100.00;99239.63;4938301;28;20390;-41
2023/04/10 05:59:45;;;;;;;;;;;;;;;11.64;100.00;99241.13;4938159;28;20542;-41
2023/04/10 06:02:10;;;;;;;;;;;;;;;12.40;100.00;99231.69;4938509;28;20302;-40
2023/04/10 06:04:36;;;;;;;;;;;;;;;12.01;100.00;99221.88;4937355;28;19925;-41
2023/04/10 06:07:01;;;;;;;;;;;;;;;11.83;100.00;99231.03;4937447;28;20014;-41
2023/04/10 06:09:26;;;;;;;;;;;;;;;12.16;100.00;99228.25;4937871;28;19919;-41
2023/04/10 06:11:52;;;;;;;;;;;;;;;12.83;100.00;99222.38;4937221;28;20074;-41
2023/04/10 06:14:18;;;;;;;;;;;;;;;12.79;100.00;99213.03;4938347;28;20575;-41
2023/04/10 06:16:43;;;;;;;;;;;;;;;12.33;100.00;99205.25;4938655;28;19932;-41
2023/04/10 06:19:09;;;;;;;;;;;;;;;12.21;100.00;99215.19;4940479;28;20382;-41
2023/04/10 06:21:34;;;;;;;;;;;;;;;12.20;100.00;99208.31;4937674;28;19989;-41
2023/04/10 06:24:00;;;;;;;;;;;;;;;12.45;100.00;99192.78;4938060;28;19929;-41
2023/04/10 06:26:25;;;;;;;;;;;;;;;12.79;100.00;99197.53;4937481;28;19922;-41
2023/04/10 06:28:50;;;;;;;;;;;;;;;13.36;100.00;99160.00;4952147;28;19983;-41
2023/04/10 06:31:17;;;;;;;;;;;;;;;12.75;100.00;99186.50;4937305;28;20297;-41
2023/04/10 06:33:43;;;;;;;;;;;;;;;12.66;100.00;99176.50;4937450;28;20446;-41
2023/04/10 06:36:08;;;;;;;;;;;;;;;13.17;100.00;99169.38;4937358;28;19932;-41
2023/04/10 06:38:36;;;;;;;;;;;;;;;12.76;100.00;99161.50;4940473;28;19926;-41
2023/04/10 06:41:01;;;;;;;;;;;;;;;12.51;100.00;99164.16;4939231;28;19961;-41
2023/04/10 06:43:27;;;;;;;;;;;;;;;13.14;100.00;99162.59;4938252;28;19930;-41
2023/04/10 06:45:53;;;;;;;;;;;;;;;12.98;99.31;99157.16;4936544;28;19926;-41
2023/04/10 06:48:18;;;;;;;;;;;;;;;12.77;97.65;99145.06;4933598;28;19926;-41
2023/04/10 06:50:43;;;;;;;;;;;;;;;13.24;98.48;99147.53;4938330;28;19934;-41
2023/04/10 06:53:08;;;;;;;;;;;;;;;12.97;98.47;99152.88;4938158;28;19962;-41
2023/04/10 06:55:34;;;;;;;;;;;;;;;13.53;97.92;99137.78;4938817;28;20048;-41
2023/04/10 06:57:59;;;;;;;;;;;;;;;12.80;98.77;99157.91;4936444;28;19918;-41
2023/04/10 07:00:24;;;;;;;;;;;;;;;13.40;96.94;99127.09;4937150;28;19961;-46
2023/04/10 07:02:50;;;;;;;;;;;;;;;13.17;97.21;99122.81;4936372;28;20456;-41
2023/04/10 07:05:15;;;;;;;;;;;;;;;13.49;95.62;99112.94;4938916;28;19961;-41
2023/04/10 07:07:41;;;;;;;;;;;;;;;13.59;96.65;99128.00;4938144;28;19969;-41
2023/04/10 07:10:06;;;;;;;;;;;;;;;14.11;94.02;99109.34;4939726;28;19918;-41
2023/04/10 07:12:32;;;;;;;;;;;;;;;14.85;94.59;99111.19;4939690;28;19929;-41
2023/04/10 07:14:57;;;;;;;;;;;;;;;14.87;92.30;99091.22;4933253;28;19926;-41
2023/04/10 07:17:22;;;;;;;;;;;;;;;15.22;90.80;99078.25;4939038;28;20629;-41
2023/04/10 07:19:48;;;;;;;;;;;;;;;14.43;89.99;99086.31;4941181;28;19923;-41
2023/04/10 07:22:14;;;;;;;;;;;;;;;14.79;90.86;99101.09;4954695;28;19922;-41
2023/04/10 07:24:39;;;;;;;;;;;;;;;14.41;92.99;99112.31;4936676;28;19922;-41
2023/04/10 07:27:05;;;;;;;;;;;;;;;14.41;91.47;99093.31;4936278;28;19952;-41
2023/04/10 07:29:30;;;;;;;;;;;;;;;14.74;92.04;99093.53;4938729;28;20024;-41
2023/04/10 07:31:55;;;;;;;;;;;;;;;14.94;90.22;99084.81;4937637;28;20013;-44
2023/04/10 07:34:21;;;;;;;;;;;;;;;14.79;90.78;99090.72;4938797;28;19922;-42
2023/04/10 07:36:46;;;;;;;;;;;;;;;15.97;87.85;99071.00;4939168;28;20021;-41
2023/04/10 07:39:11;;;;;;;;;;;;;;;15.24;88.06;99076.44;4939524;28;19973;-41
2023/04/10 07:41:36;;;;;;;;;;;;;;;14.90;87.95;99072.91;4939805;28;20006;-41
2023/04/10 07:44:02;;;;;;;;;;;;;;;15.44;88.82;99084.06;4939191;28;20724;-41
2023/04/10 07:46:27;;;;;;;;;;;;;;;15.42;89.28;99080.69;4938886;28;20007;-41
2023/04/10 07:48:53;;;;;;;;;;;;;;;15.80;87.67;99056.28;4939356;28;20690;-41
2023/04/10 07:51:19;;;;;;;;;;;;;;;15.66;88.62;99067.38;4952209;28;20690;-41
2023/04/10 07:53:44;;;;;;;;;;;;;;;16.05;88.02;99055.81;4939897;28;20013;-41
2023/04/10 07:56:19;;;;;;;;;;;;;;;16.72;86.12;99039.13;4939227;28;20399;-41
2023/04/10 07:58:45;;;;;;;;;;;;;;;16.01;86.80;99042.19;4929139;28;19950;-41
2023/04/10 08:01:10;;;;;;;;;;;;;;;16.31;85.63;99026.69;4937468;28;20393;-41
2023/04/10 08:03:40;;;;;;;;;;;;;;;16.55;85.30;99039.22;4939102;28;19929;-41
2023/04/10 08:06:07;;;;;;;;;;;;;;;15.96;85.56;99031.19;4938038;28;19954;-41
2023/04/10 08:08:33;;;;;;;;;;;;;;;15.53;86.18;99035.16;4938347;28;19922;-41
2023/04/10 08:10:58;;;;;;;;;;;;;;;15.33;85.65;99037.03;4938209;28;19918;-41
2023/04/10 08:13:23;;;;;;;;;;;;;;;15.26;86.97;99051.25;4939823;28;19953;-41
2023/04/10 08:15:49;;;;;;;;;;;;;;;15.11;86.98;99047.66;4937971;28;21627;-40
2023/04/10 08:18:14;;;;;;;;;;;;;;;15.60;87.61;99046.91;4936500;28;19945;-41
2023/04/10 08:20:39;;;;;;;;;;;;;;;15.83;86.63;99036.22;4938692;28;19967;-41
2023/04/10 08:23:04;;;;;;;;;;;;;;;15.72;85.19;99017.75;4939223;28;19925;-41
2023/04/10 08:25:30;;;;;;;;;;;;;;;16.44;84.20;99007.78;4937020;28;19975;-41
2023/04/10 08:27:55;;;;;;;;;;;;;;;15.55;85.58;99038.53;4937764;28;19922;-41
2023/04/10 08:30:20;;;;;;;;;;;;;;;15.61;84.16;99001.88;4940599;28;20189;-41
2023/04/10 08:32:46;;;;;;;;;;;;;;;15.13;85.03;99013.88;4936894;28;20861;-41
2023/04/10 08:35:11;;;;;;;;;;;;;;;15.82;84.83;98995.56;4937841;28;21833;-40
2023/04/10 08:37:36;;;;;;;;;;;;;;;15.35;85.69;99017.06;4938536;28;20376;-41
2023/04/10 08:40:02;;;;;;;;;;;;;;;15.78;85.13;98991.47;4938520;28;20452;-40
2023/04/10 08:42:27;;;;;;;;;;;;;;;16.06;83.84;98972.63;4937888;28;21714;-41
2023/04/10 08:44:52;;;;;;;;;;;;;;;16.35;83.34;98974.53;4939725;28;19984;-41
2023/04/10 08:47:19;;;;;;;;;;;;;;;16.65;80.92;98952.00;4937323;28;19927;-41
2023/04/10 08:49:55;;;;;;;;;;;;;;;16.08;79.15;98933.59;4940343;28;20466;-41
2023/04/10 08:52:21;;;;;;;;;;;;;;;16.72;80.14;98931.69;4938342;28;19928;-41
2023/04/10 08:54:47;;;;;;;;;;;;;;;16.61;80.15;98942.69;4935992;28;19922;-41
2023/04/10 08:57:18;;;;;;;;;;;;;;;16.52;78.75;98917.22;4936632;28;19922;-41
2023/04/10 08:59:43;;;;;;;;;;;;;;;16.78;80.10;98940.88;4936620;28;19919;-41
2023/04/10 09:02:09;;;;;;;;;;;;;;;16.83;78.01;98907.66;4937723;28;20003;-41
2023/04/10 09:04:34;;;;;;;;;;;;;;;16.30;78.77;98923.63;4938767;28;20646;-41
2023/04/10 09:06:59;;;;;;;;;;;;;;;16.12;78.84;98929.88;4935466;28;19922;-41
2023/04/10 09:09:26;;;;;;;;;;;;;;;16.08;78.55;98916.22;4939521;28;20438;-41
2023/04/10 09:11:51;;;;;;;;;;;;;;;16.73;80.80;98941.13;4941459;28;20442;-41
2023/04/10 09:14:23;;;;;;;;;;;;;;;17.10;79.15;98921.59;4942210;28;19918;-41
2023/04/10 09:16:49;;;;;;;;;;;;;;;16.60;78.51;98917.59;4956322;28;19966;-41
2023/04/10 09:19:30;;;;;;;;;;;;;;;17.54;74.76;98876.41;4942421;28;20496;-41
2023/04/10 09:21:55;;;;;;;;;;;;;;;17.59;76.49;98898.75;4942080;28;19922;-41
2023/04/10 09:24:21;;;;;;;;;;;;;;;17.58;76.37;98902.25;4941731;28;19983;-41
2023/04/10 09:26:47;;;;;;;;;;;;;;;18.12;75.13;98886.69;4937279;28;21697;-41
2023/04/10 09:29:12;;;;;;;;;;;;;;;17.65;74.08;98888.78;4940647;28;19958;-41
2023/04/10 09:31:38;;;;;;;;;;;;;;;17.51;75.45;98902.63;4942067;28;20041;-41
2023/04/10 09:34:10;;;;;;;;;;;;;;;17.56;75.43;98895.38;4940299;28;19925;-41
2023/04/10 09:36:40;;;;;;;;;;;;;;;17.76;74.88;98880.25;4940629;28;19948;-41
2023/04/10 09:39:05;;;;;;;;;;;;;;;17.27;74.10;98868.56;4940486;28;19923;-41
2023/04/10 09:41:30;;;;;;;;;;;;;;;18.51;73.97;98856.31;4940314;28;19923;-41
2023/04/10 09:44:08;;;;;;;;;;;;;;;18.08;72.94;98844.34;4936672;28;19923;-41
2023/04/10 09:46:33;;;;;;;;;;;;;;;18.32;72.04;98846.28;4941492;28;19921;-41
2023/04/10 09:49:03;;;;;;;;;;;;;;;18.15;73.09;98852.59;4942098;28;20134;-41
2023/04/10 09:51:32;;;;;;;;;;;;;;;17.84;73.58;98846.78;4940265;28;19926;-41
2023/04/10 09:53:58;;;;;;;;;;;;;;;17.74;74.75;98840.44;4942353;28;20016;-41
2023/04/10 09:56:25;;;;;;;;;;;;;;;18.73;72.26;98827.03;4941802;28;19925;-41
2023/04/10 09:58:50;;;;;;;;;;;;;;;18.10;71.88;98815.59;4940049;28;19919;-41
2023/04/10 10:01:15;;;;;;;;;;;;;;;18.22;72.11;98806.94;4939404;28;19925;-41
2023/04/10 10:03:40;;;;;;;;;;;;;;;18.34;72.38;98811.34;4939627;28;19926;-41
2023/04/10 10:06:05;;;;;;;;;;;;;;;18.25;73.29;98811.16;4941211;28;19967;-41
2023/04/10 10:08:31;;;;;;;;;;;;;;;18.34;70.83;98798.31;4941982;28;19922;-41
2023/04/10 10:10:56;;;;;;;;;;;;;;;18.65;70.62;98791.00;4939775;28;19917;-41
2023/04/10 10:13:40;;;;;;;;;;;;;;;18.79;72.01;98804.00;4941041;28;19965;-41
2023/04/10 10:16:14;;;;;;;;;;;;;;;19.36;67.91;98760.84;4941355;28;19922;-41
2023/04/10 10:18:39;;;;;;;;;;;;;;;18.59;70.65;98804.50;4938033;28;19930;-41
2023/04/10 10:21:05;;;;;;;;;;;;;;;18.09;72.68;98816.53;4939733;28;20687;-41
2023/04/10 10:23:31;;;;;;;;;;;;;;;19.56;70.54;98788.09;4954673;28;19932;-41
2023/04/10 10:25:56;;;;;;;;;;;;;;;19.39;69.23;98780.69;4936764;28;19926;-41
2023/04/10 10:28:21;;;;;;;;;;;;;;;18.37;67.72;98792.88;4936771;28;19976;-42
2023/04/10 10:30:48;;;;;;;;;;;;;;;18.68;69.90;98785.59;4939422;28;19922;-41
2023/04/10 10:33:13;;;;;;;;;;;;;;;18.79;70.12;98793.56;4941182;28;19929;-41
2023/04/10 10:35:39;;;;;;;;;;;;;;;19.25;69.44;98788.63;4938524;28;19925;-41
2023/04/10 10:38:04;;;;;;;;;;;;;;;18.76;67.31;98778.06;4940302;28;19929;-41
2023/04/10 10:40:46;;;;;;;;;;;;;;;19.14;64.08;98755.50;4940280;28;19918;-41
2023/04/10 10:43:31;;;;;;;;;;;;;;;20.73;64.97;98742.78;4938135;28;19986;-41
2023/04/10 10:46:03;;;;;;;;;;;;;;;19.22;66.96;98777.47;4940125;28;20339;-41
2023/04/10 10:48:28;;;;;;;;;;;;;;;19.33;63.49;98734.09;4953569;28;19922;-41
2023/04/10 10:50:57;;;;;;;;;;;;;;;19.54;64.50;98739.53;4944358;28;19923;-42
2023/04/10 10:53:35;;;;;;;;;;;;;;;19.88;63.81;98730.06;4948266;28;19926;-41
2023/04/10 10:56:22;;;;;;;;;;;;;;;19.44;64.98;98742.81;4940668;28;19933;-41
2023/04/10 10:58:47;;;;;;;;;;;;;;;19.17;64.68;98736.97;4939803;28;19926;-41
2023/04/10 11:01:13;;;;;;;;;;;;;;;19.58;64.48;98739.19;4938585;28;20148;-41
2023/04/10 11:03:38;;;;;;;;;;;;;;;20.50;61.31;98691.41;4939380;28;19937;-41
2023/04/10 11:06:06;;;;;;;;;;;;;;;19.12;62.89;98705.16;4938352;28;20888;-41
2023/04/10 11:08:31;;;;;;;;;;;;;;;20.29;64.14;98714.81;4944794;28;20028;-41
2023/04/10 11:11:03;;;;;;;;;;;;;;;20.38;62.17;98691.41;4940693;28;20560;-41
2023/04/10 11:13:28;;;;;;;;;;;;;;;19.68;65.45;98713.22;4948352;28;20965;-42
2023/04/10 11:15:55;;;;;;;;;;;;;;;19.79;65.77;98709.84;4937552;28;19922;-41
2023/04/10 11:18:40;;;;;;;;;;;;;;;19.33;64.54;98676.66;4925081;28;20304;-41
2023/04/10 11:21:15;;;;;;;;;;;;;;;20.20;60.34;98658.84;4939155;28;19953;-43
2023/04/10 11:23:49;;;;;;;;;;;;;;;19.48;61.30;98675.53;4955180;28;19929;-41
2023/04/10 11:26:42;;;;;;;;;;;;;;;19.85;59.96;98647.50;4941729;28;19921;-41
2023/04/10 11:29:16;;;;;;;;;;;;;;;20.50;59.60;98646.94;4941964;28;19937;-42
2023/04/10 11:31:45;;;;;;;;;;;;;;;21.53;59.96;98647.41;4940021;28;20291;-41
2023/04/10 11:34:10;;;;;;;;;;;;;;;21.12;61.61;98651.59;4939530;28;20545;-42
2023/04/10 11:36:41;;;;;;;;;;;;;;;20.30;60.36;98640.63;4939242;28;19932;-41
2023/04/10 11:39:16;;;;;;;;;;;;;;;20.11;60.60;98633.41;4941112;28;20021;-41
2023/04/10 11:41:45;;;;;;;;;;;;;;;20.62;63.37;98652.06;4939655;28;20036;-41
2023/04/10 11:44:37;;;;;;;;;;;;;;;22.10;61.02;98630.34;4938711;28;19934;-41
2023/04/10 11:47:03;;;;;;;;;;;;;;;20.39;62.22;98647.78;4938434;28;20598;-41
2023/04/10 11:49:33;;;;;;;;;;;;;;;20.23;57.09;98609.75;4930399;28;19924;-41
2023/04/10 11:51:58;;;;;;;;;;;;;;;20.09;56.07;98591.69;4937606;28;19922;-41
2023/04/10 11:54:24;;;;;;;;;;;;;;;21.66;54.16;98579.88;4939765;28;19976;-41
2023/04/10 11:56:57;;;;;;;;;;;;;;;21.43;55.65;98600.16;4943356;28;19922;-41
2023/04/10 11:59:22;;;;;;;;;;;;;;;20.59;57.09;98593.91;4944288;28;20010;-41
2023/04/10 12:01:48;;;;;;;;;;;;;;;19.89;60.66;98616.75;4941388;28;19992;-41
2023/04/10 12:04:14;;;;;;;;;;;;;;;20.47;61.26;98609.59;4936882;28;19922;-41
2023/04/10 12:06:42;;;;;;;;;;;;;;;19.65;59.62;98598.53;4937814;28;20017;-41
2023/04/10 12:09:17;;;;;;;;;;;;;;;19.90;61.90;98602.72;4938962;28;19965;-41
2023/04/10 12:11:53;;;;;;;;;;;;;;;20.26;63.20;98609.50;4937294;28;19926;-40
2023/04/10 12:14:19;;;;;;;;;;;;;;;20.13;61.59;98560.91;4938580;28;19925;-40
2023/04/10 12:16:45;;;;;;;;;;;;;;;20.70;61.02;98564.28;4933334;28;19926;-40
2023/04/10 12:19:10;;;;;;;;;;;;;;;20.78;59.90;98552.25;4937358;28;19922;-40
2023/04/10 12:21:35;;;;;;;;;;;;;;;21.57;60.47;98557.09;4936747;28;19937;-40
2023/04/10 12:24:01;;;;;;;;;;;;;;;21.00;58.80;98548.69;4936456;28;19930;-40
2023/04/10 12:26:26;;;;;;;;;;;;;;;20.50;59.41;98558.00;4938499;28;19982;-40
2023/04/10 12:28:52;;;;;;;;;;;;;;;21.31;59.92;98549.59;4938119;28;19962;-40
2023/04/10 12:31:18;;;;;;;;;;;;;;;20.84;59.77;98551.72;4934608;28;19963;-41
2023/04/10 12:33:44;;;;;;;;;;;;;;;21.10;58.80;98541.75;4938185;28;20831;-41
2023/04/10 12:36:22;;;;;;;;;;;;;;;20.54;58.27;98538.50;4936858;28;19926;-41
2023/04/10 12:38:48;;;;;;;;;;;;;;;20.00;61.00;98554.03;4938021;28;19944;-40